sensor_id;sensor_type;location;lat;lon;timestamp;pressure;altitude;pressure_sealevel;temperature;humidity
75219;BME280;63801;49.414;19.474;2024-02-23T00:01:48;92170.72;;;6.37;80.92
75219;BME280;63801;49.414;19.474;2024-02-23T00:03:48;92145.03;;;6.32;80.95
75219;BME280;63801;49.414;19.474;2024-02-23T00:05:48;92139.31;;;6.33;80.89
75219;BME280;63801;49.414;19.474;2024-02-23T00:07:49;92148.13;;;6.34;80.89
75219;BME280;63801;49.414;19.474;2024-02-23T00:09:49;92135.47;;;6.31;80.39
75219;BME280;63801;49.414;19.474;2024-02-23T00:11:49;92113.28;;;6.30;80.93
75219;BME280;63801;49.414;19.474;2024-02-23T00:13:50;92109.06;;;6.29;80.85
75219;BME280;63801;49.414;19.474;2024-02-23T00:15:50;92130.13;;;6.31;80.72
75219;BME280;63801;49.414;19.474;2024-02-23T00:17:51;92120.53;;;6.30;80.87
75219;BME280;63801;49.414;19.474;2024-02-23T00:19:52;92099.94;;;6.34;80.43
75219;BME280;63801;49.414;19.474;2024-02-23T00:21:52;92104.53;;;6.33;80.37
75219;BME280;63801;49.414;19.474;2024-02-23T00:23:53;92125.16;;;6.33;80.12
75219;BME280;63801;49.414;19.474;2024-02-23T00:25:53;92122.19;;;6.38;79.51
75219;BME280;63801;49.414;19.474;2024-02-23T00:27:55;92109.94;;;6.37;79.44
75219;BME280;63801;49.414;19.474;2024-02-23T00:29:55;92109.25;;;6.44;79.17
75219;BME280;63801;49.414;19.474;2024-02-23T00:31:55;92114.66;;;6.47;78.88
75219;BME280;63801;49.414;19.474;2024-02-23T00:33:56;92077.22;;;6.51;78.47
75219;BME280;63801;49.414;19.474;2024-02-23T00:35:56;92089.47;;;6.52;78.15
75219;BME280;63801;49.414;19.474;2024-02-23T00:37:57;92099.84;;;6.53;77.98
75219;BME280;63801;49.414;19.474;2024-02-23T00:39:57;92114.78;;;6.54;77.64
75219;BME280;63801;49.414;19.474;2024-02-23T00:41:57;92101.38;;;6.54;77.55
75219;BME280;63801;49.414;19.474;2024-02-23T00:43:58;92055.56;;;6.59;77.53
75219;BME280;63801;49.414;19.474;2024-02-23T00:45:58;92002.41;;;6.61;77.23
75219;BME280;63801;49.414;19.474;2024-02-23T00:47:59;92107.16;;;6.60;77.20
75219;BME280;63801;49.414;19.474;2024-02-23T00:49:59;92088.06;;;6.61;77.12
75219;BME280;63801;49.414;19.474;2024-02-23T00:51:59;92126.34;;;6.62;77.07
75219;BME280;63801;49.414;19.474;2024-02-23T00:54:00;92090.41;;;6.63;76.92
75219;BME280;63801;49.414;19.474;2024-02-23T00:56:00;92106.84;;;6.65;76.88
75219;BME280;63801;49.414;19.474;2024-02-23T00:58:00;92107.25;;;6.63;76.83
75219;BME280;63801;49.414;19.474;2024-02-23T01:00:02;92103.00;;;6.62;76.92
75219;BME280;63801;49.414;19.474;2024-02-23T01:02:05;92089.63;;;6.62;77.22
75219;BME280;63801;49.414;19.474;2024-02-23T01:04:05;92062.81;;;6.59;77.39
75219;BME280;63801;49.414;19.474;2024-02-23T01:06:06;92076.91;;;6.56;77.87
75219;BME280;63801;49.414;19.474;2024-02-23T01:08:06;92100.56;;;6.50;77.88
75219;BME280;63801;49.414;19.474;2024-02-23T01:10:07;92089.44;;;6.48;78.20
75219;BME280;63801;49.414;19.474;2024-02-23T01:12:07;92075.97;;;6.41;78.33
75219;BME280;63801;49.414;19.474;2024-02-23T01:14:08;92065.66;;;6.43;78.25
75219;BME280;63801;49.414;19.474;2024-02-23T01:16:09;92089.34;;;6.41;78.29
75219;BME280;63801;49.414;19.474;2024-02-23T01:18:10;92072.91;;;6.43;78.12
75219;BME280;63801;49.414;19.474;2024-02-23T01:20:10;92015.94;;;6.42;77.94
75219;BME280;63801;49.414;19.474;2024-02-23T01:22:11;92094.75;;;6.45;77.56
75219;BME280;63801;49.414;19.474;2024-02-23T01:24:11;92085.59;;;6.46;77.78
75219;BME280;63801;49.414;19.474;2024-02-23T01:26:12;92083.31;;;6.48;77.63
75219;BME280;63801;49.414;19.474;2024-02-23T01:28:14;92081.00;;;6.46;77.54
75219;BME280;63801;49.414;19.474;2024-02-23T01:30:15;92067.59;;;6.46;77.62
75219;BME280;63801;49.414;19.474;2024-02-23T01:32:15;92084.81;;;6.45;77.65
75219;BME280;63801;49.414;19.474;2024-02-23T01:34:15;92113.09;;;6.46;77.43
75219;BME280;63801;49.414;19.474;2024-02-23T01:36:16;92087.88;;;6.47;77.48
75219;BME280;63801;49.414;19.474;2024-02-23T01:38:16;92054.56;;;6.41;77.48
75219;BME280;63801;49.414;19.474;2024-02-23T01:40:20;92093.25;;;6.47;77.45
75219;BME280;63801;49.414;19.474;2024-02-23T01:42:21;92085.22;;;6.47;77.49
75219;BME280;63801;49.414;19.474;2024-02-23T01:44:22;92087.84;;;6.44;77.58
75219;BME280;63801;49.414;19.474;2024-02-23T01:46:22;92091.69;;;6.46;77.39
75219;BME280;63801;49.414;19.474;2024-02-23T01:48:22;92102.41;;;6.46;77.42
75219;BME280;63801;49.414;19.474;2024-02-23T01:50:24;92134.53;;;6.46;77.40
75219;BME280;63801;49.414;19.474;2024-02-23T01:52:25;92093.25;;;6.47;77.35
75219;BME280;63801;49.414;19.474;2024-02-23T01:54:25;92098.97;;;6.46;77.31
75219;BME280;63801;49.414;19.474;2024-02-23T01:56:28;92095.16;;;6.47;77.30
75219;BME280;63801;49.414;19.474;2024-02-23T01:58:30;92065.34;;;6.48;77.32
75219;BME280;63801;49.414;19.474;2024-02-23T02:00:31;92084.09;;;6.48;77.37
75219;BME280;63801;49.414;19.474;2024-02-23T02:02:31;92081.75;;;6.47;77.33
75219;BME280;63801;49.414;19.474;2024-02-23T02:04:32;92091.69;;;6.46;77.47
75219;BME280;63801;49.414;19.474;2024-02-23T02:06:32;92089.03;;;6.46;77.44
75219;BME280;63801;49.414;19.474;2024-02-23T02:08:36;92098.97;;;6.46;77.53
75219;BME280;63801;49.414;19.474;2024-02-23T02:10:37;92087.47;;;6.42;77.74
75219;BME280;63801;49.414;19.474;2024-02-23T02:12:37;92084.00;;;6.41;77.69
75219;BME280;63801;49.414;19.474;2024-02-23T02:14:37;92098.16;;;6.42;77.60
75219;BME280;63801;49.414;19.474;2024-02-23T02:16:38;92084.00;;;6.41;77.62
75219;BME280;63801;49.414;19.474;2024-02-23T02:18:38;92096.22;;;6.42;77.16
75219;BME280;63801;49.414;19.474;2024-02-23T02:20:43;92093.56;;;6.42;77.68
75219;BME280;63801;49.414;19.474;2024-02-23T02:22:47;92059.91;;;6.41;77.72
75219;BME280;63801;49.414;19.474;2024-02-23T02:24:47;92087.47;;;6.42;77.79
75219;BME280;63801;49.414;19.474;2024-02-23T02:26:48;92092.38;;;6.40;77.89
75219;BME280;63801;49.414;19.474;2024-02-23T02:28:50;92074.44;;;6.40;78.00
75219;BME280;63801;49.414;19.474;2024-02-23T02:30:51;92088.16;;;6.39;78.12
75219;BME280;63801;49.414;19.474;2024-02-23T02:32:52;92074.38;;;6.37;78.18
75219;BME280;63801;49.414;19.474;2024-02-23T02:34:53;92095.34;;;6.31;78.20
75219;BME280;63801;49.414;19.474;2024-02-23T02:36:53;92090.75;;;6.31;78.30
75219;BME280;63801;49.414;19.474;2024-02-23T02:38:53;92103.34;;;6.31;78.37
75219;BME280;63801;49.414;19.474;2024-02-23T02:40:54;92112.94;;;6.32;78.15
75219;BME280;63801;49.414;19.474;2024-02-23T02:42:54;92079.28;;;6.31;78.21
75219;BME280;63801;49.414;19.474;2024-02-23T02:44:54;92109.09;;;6.33;78.26
75219;BME280;63801;49.414;19.474;2024-02-23T02:46:55;92114.47;;;6.33;78.08
75219;BME280;63801;49.414;19.474;2024-02-23T02:48:55;92110.66;;;6.34;78.16
75219;BME280;63801;49.414;19.474;2024-02-23T02:50:55;92111.78;;;6.33;78.15
75219;BME280;63801;49.414;19.474;2024-02-23T02:52:56;92113.72;;;6.32;78.16
75219;BME280;63801;49.414;19.474;2024-02-23T02:54:56;92100.34;;;6.32;77.75
75219;BME280;63801;49.414;19.474;2024-02-23T02:56:56;92107.22;;;6.33;77.93
75219;BME280;63801;49.414;19.474;2024-02-23T02:58:57;92122.47;;;6.33;78.15
75219;BME280;63801;49.414;19.474;2024-02-23T03:00:57;92105.69;;;6.32;78.07
75219;BME280;63801;49.414;19.474;2024-02-23T03:02:57;92110.25;;;6.32;77.96
75219;BME280;63801;49.414;19.474;2024-02-23T03:04:58;92115.63;;;6.32;78.06
75219;BME280;63801;49.414;19.474;2024-02-23T03:06:58;92112.19;;;6.35;77.93
75219;BME280;63801;49.414;19.474;2024-02-23T03:08:58;92131.28;;;6.33;77.90
75219;BME280;63801;49.414;19.474;2024-02-23T03:10:59;92122.09;;;6.31;77.86
75219;BME280;63801;49.414;19.474;2024-02-23T03:12:59;92130.47;;;6.29;78.13
75219;BME280;63801;49.414;19.474;2024-02-23T03:14:59;92125.91;;;6.30;78.02
75219;BME280;63801;49.414;19.474;2024-02-23T03:17:07;92116.75;;;6.31;77.78
75219;BME280;63801;49.414;19.474;2024-02-23T03:19:07;92116.00;;;6.34;77.89
75219;BME280;63801;49.414;19.474;2024-02-23T03:21:08;92126.34;;;6.36;77.83
75219;BME280;63801;49.414;19.474;2024-02-23T03:23:10;92130.16;;;6.35;77.77
75219;BME280;63801;49.414;19.474;2024-02-23T03:25:11;92150.09;;;6.37;77.73
75219;BME280;63801;49.414;19.474;2024-02-23T03:27:12;92138.53;;;6.33;77.81
75219;BME280;63801;49.414;19.474;2024-02-23T03:29:12;92129.38;;;6.34;77.80
75219;BME280;63801;49.414;19.474;2024-02-23T03:31:12;92132.06;;;6.34;77.87
75219;BME280;63801;49.414;19.474;2024-02-23T03:33:13;92126.72;;;6.34;77.88
75219;BME280;63801;49.414;19.474;2024-02-23T03:35:13;92134.38;;;6.36;77.72
75219;BME280;63801;49.414;19.474;2024-02-23T03:37:15;92119.75;;;6.29;78.00
75219;BME280;63801;49.414;19.474;2024-02-23T03:39:15;92142.78;;;6.34;78.14
75219;BME280;63801;49.414;19.474;2024-02-23T03:41:15;92132.06;;;6.34;78.06
75219;BME280;63801;49.414;19.474;2024-02-23T03:43:16;92132.03;;;6.30;78.57
75219;BME280;63801;49.414;19.474;2024-02-23T03:45:16;92139.22;;;6.26;78.58
75219;BME280;63801;49.414;19.474;2024-02-23T03:47:16;92119.63;;;6.19;78.87
75219;BME280;63801;49.414;19.474;2024-02-23T03:49:16;92131.19;;;6.26;78.50
75219;BME280;63801;49.414;19.474;2024-02-23T03:51:17;92132.28;;;6.22;78.95
75219;BME280;63801;49.414;19.474;2024-02-23T03:53:18;92145.66;;;6.22;78.90
75219;BME280;63801;49.414;19.474;2024-02-23T03:55:18;92140.31;;;6.22;78.31
75219;BME280;63801;49.414;19.474;2024-02-23T03:57:18;92136.38;;;6.16;79.32
75219;BME280;63801;49.414;19.474;2024-02-23T03:59:18;92131.75;;;6.13;79.42
75219;BME280;63801;49.414;19.474;2024-02-23T04:01:19;92139.78;;;6.13;79.26
75219;BME280;63801;49.414;19.474;2024-02-23T04:03:19;92145.88;;;6.10;79.47
75219;BME280;63801;49.414;19.474;2024-02-23T04:05:19;92142.41;;;6.09;79.32
75219;BME280;63801;49.414;19.474;2024-02-23T04:07:20;92140.88;;;6.08;79.53
75219;BME280;63801;49.414;19.474;2024-02-23T04:09:21;92141.59;;;6.05;79.63
75219;BME280;63801;49.414;19.474;2024-02-23T04:11:21;92134.25;;;6.02;79.64
75219;BME280;63801;49.414;19.474;2024-02-23T04:13:22;92146.13;;;6.01;79.91
75219;BME280;63801;49.414;19.474;2024-02-23T04:15:22;92151.00;;;5.96;80.40
75219;BME280;63801;49.414;19.474;2024-02-23T04:17:23;92158.19;;;5.92;80.57
75219;BME280;63801;49.414;19.474;2024-02-23T04:19:23;92142.50;;;5.90;80.75
75219;BME280;63801;49.414;19.474;2024-02-23T04:21:24;92154.31;;;5.89;80.83
75219;BME280;63801;49.414;19.474;2024-02-23T04:23:24;92148.63;;;5.91;80.89
75219;BME280;63801;49.414;19.474;2024-02-23T04:25:24;92148.22;;;5.89;80.87
75219;BME280;63801;49.414;19.474;2024-02-23T04:27:25;92146.66;;;5.88;81.00
75219;BME280;63801;49.414;19.474;2024-02-23T04:29:25;92143.53;;;5.85;81.18
75219;BME280;63801;49.414;19.474;2024-02-23T04:31:25;92149.66;;;5.86;81.22
75219;BME280;63801;49.414;19.474;2024-02-23T04:33:26;92153.13;;;5.86;81.30
75219;BME280;63801;49.414;19.474;2024-02-23T04:35:26;92144.31;;;5.86;81.14
75219;BME280;63801;49.414;19.474;2024-02-23T04:37:26;92147.44;;;5.88;81.15
75219;BME280;63801;49.414;19.474;2024-02-23T04:39:27;92137.50;;;5.89;80.87
75219;BME280;63801;49.414;19.474;2024-02-23T04:41:27;92140.53;;;5.87;81.18
75219;BME280;63801;49.414;19.474;2024-02-23T04:43:27;92141.22;;;5.84;81.14
75219;BME280;63801;49.414;19.474;2024-02-23T04:45:28;92118.84;;;5.69;81.21
75219;BME280;63801;49.414;19.474;2024-02-23T04:47:28;92142.75;;;5.85;81.31
75219;BME280;63801;49.414;19.474;2024-02-23T04:49:28;92157.63;;;5.82;81.29
75219;BME280;63801;49.414;19.474;2024-02-23T04:51:29;92155.28;;;5.81;81.30
75219;BME280;63801;49.414;19.474;2024-02-23T04:53:29;92147.66;;;5.79;81.44
75219;BME280;63801;49.414;19.474;2024-02-23T04:55:30;92145.38;;;5.81;81.09
75219;BME280;63801;49.414;19.474;2024-02-23T04:57:31;92144.97;;;5.79;81.53
75219;BME280;63801;49.414;19.474;2024-02-23T04:59:31;92137.34;;;5.81;81.35
75219;BME280;63801;49.414;19.474;2024-02-23T05:01:38;92130.47;;;5.80;81.41
75219;BME280;63801;49.414;19.474;2024-02-23T05:03:38;92145.72;;;5.80;81.29
75219;BME280;63801;49.414;19.474;2024-02-23T05:05:39;92147.28;;;5.81;81.38
75219;BME280;63801;49.414;19.474;2024-02-23T05:07:39;92137.34;;;5.81;81.15
75219;BME280;63801;49.414;19.474;2024-02-23T05:09:40;92159.47;;;5.78;81.39
75219;BME280;63801;49.414;19.474;2024-02-23T05:11:40;92146.50;;;5.80;81.29
75219;BME280;63801;49.414;19.474;2024-02-23T05:13:41;92152.56;;;5.77;81.27
75219;BME280;63801;49.414;19.474;2024-02-23T05:15:42;92141.88;;;5.77;81.42
75219;BME280;63801;49.414;19.474;2024-02-23T05:17:42;92155.25;;;5.77;81.35
75219;BME280;63801;49.414;19.474;2024-02-23T05:19:42;92144.59;;;5.81;81.29
75219;BME280;63801;49.414;19.474;2024-02-23T05:21:43;92157.97;;;5.81;81.31
75219;BME280;63801;49.414;19.474;2024-02-23T05:23:43;92163.69;;;5.79;81.42
75219;BME280;63801;49.414;19.474;2024-02-23T05:25:46;92162.16;;;5.78;81.66
75219;BME280;63801;49.414;19.474;2024-02-23T05:27:47;92154.41;;;5.73;81.55
75219;BME280;63801;49.414;19.474;2024-02-23T05:29:48;92170.50;;;5.77;81.50
75219;BME280;63801;49.414;19.474;2024-02-23T05:31:52;92171.63;;;5.76;81.67
75219;BME280;63801;49.414;19.474;2024-02-23T05:33:53;92178.19;;;5.78;81.49
75219;BME280;63801;49.414;19.474;2024-02-23T05:35:53;92178.97;;;5.79;81.73
75219;BME280;63801;49.414;19.474;2024-02-23T05:37:53;92180.13;;;5.81;81.57
75219;BME280;63801;49.414;19.474;2024-02-23T05:39:55;92184.66;;;5.77;81.66
75219;BME280;63801;49.414;19.474;2024-02-23T05:41:55;92178.59;;;5.80;81.48
75219;BME280;63801;49.414;19.474;2024-02-23T05:43:56;92172.47;;;5.80;81.57
75219;BME280;63801;49.414;19.474;2024-02-23T05:45:56;92172.88;;;5.82;81.35
75219;BME280;63801;49.414;19.474;2024-02-23T05:47:58;92188.94;;;5.82;81.48
75219;BME280;63801;49.414;19.474;2024-02-23T05:49:59;92190.84;;;5.81;81.61
75219;BME280;63801;49.414;19.474;2024-02-23T05:51:59;92185.00;;;5.76;82.05
75219;BME280;63801;49.414;19.474;2024-02-23T05:53:59;92198.38;;;5.76;81.68
75219;BME280;63801;49.414;19.474;2024-02-23T05:56:00;92197.59;;;5.75;81.82
75219;BME280;63801;49.414;19.474;2024-02-23T05:58:00;92203.72;;;5.76;81.80
75219;BME280;63801;49.414;19.474;2024-02-23T06:00:00;92212.09;;;5.74;81.94
75219;BME280;63801;49.414;19.474;2024-02-23T06:02:01;92212.47;;;5.73;82.09
75219;BME280;63801;49.414;19.474;2024-02-23T06:04:01;92208.22;;;5.72;82.13
75219;BME280;63801;49.414;19.474;2024-02-23T06:06:01;92215.91;;;5.73;82.33
75219;BME280;63801;49.414;19.474;2024-02-23T06:08:02;92225.03;;;5.72;82.28
75219;BME280;63801;49.414;19.474;2024-02-23T06:10:03;92226.25;;;5.75;82.12
75219;BME280;63801;49.414;19.474;2024-02-23T06:12:05;92235.75;;;5.72;82.23
75219;BME280;63801;49.414;19.474;2024-02-23T06:14:05;92236.50;;;5.73;82.37
75219;BME280;63801;49.414;19.474;2024-02-23T06:16:10;92228.94;;;5.75;82.41
75219;BME280;63801;49.414;19.474;2024-02-23T06:18:10;92234.28;;;5.75;82.17
75219;BME280;63801;49.414;19.474;2024-02-23T06:20:11;92236.56;;;5.76;82.13
75219;BME280;63801;49.414;19.474;2024-02-23T06:22:11;92236.56;;;5.76;82.17
75219;BME280;63801;49.414;19.474;2024-02-23T06:24:12;92225.03;;;5.72;82.15
75219;BME280;63801;49.414;19.474;2024-02-23T06:26:12;92230.16;;;5.81;82.19
75219;BME280;63801;49.414;19.474;2024-02-23T06:28:13;92240.09;;;5.80;82.03
75219;BME280;63801;49.414;19.474;2024-02-23T06:30:13;92241.63;;;5.81;82.16
75219;BME280;63801;49.414;19.474;2024-02-23T06:32:13;92237.06;;;5.82;82.11
75219;BME280;63801;49.414;19.474;2024-02-23T06:34:15;92244.31;;;5.81;81.91
75219;BME280;63801;49.414;19.474;2024-02-23T06:36:15;92245.84;;;5.82;81.92
75219;BME280;63801;49.414;19.474;2024-02-23T06:38:16;92242.06;;;5.83;81.80
75219;BME280;63801;49.414;19.474;2024-02-23T06:40:16;92241.38;;;5.86;81.96
75219;BME280;63801;49.414;19.474;2024-02-23T06:42:18;92240.25;;;5.88;81.78
75219;BME280;63801;49.414;19.474;2024-02-23T06:44:18;92246.00;;;5.90;81.69
75219;BME280;63801;49.414;19.474;2024-02-23T06:46:19;92237.84;;;5.82;81.52
75219;BME280;63801;49.414;19.474;2024-02-23T06:48:23;92251.41;;;5.93;81.64
75219;BME280;63801;49.414;19.474;2024-02-23T06:50:24;92249.94;;;5.96;81.71
75219;BME280;63801;49.414;19.474;2024-02-23T06:52:25;92257.69;;;6.01;81.56
75219;BME280;63801;49.414;19.474;2024-02-23T06:54:26;92260.34;;;6.01;81.28
75219;BME280;63801;49.414;19.474;2024-02-23T06:56:26;92267.25;;;6.02;81.39
75219;BME280;63801;49.414;19.474;2024-02-23T06:58:27;92264.50;;;5.98;81.18
75219;BME280;63801;49.414;19.474;2024-02-23T07:00:27;92264.88;;;5.97;81.19
75219;BME280;63801;49.414;19.474;2024-02-23T07:02:28;92275.97;;;5.99;81.38
75219;BME280;63801;49.414;19.474;2024-02-23T07:04:31;92281.31;;;5.99;81.19
75219;BME280;63801;49.414;19.474;2024-02-23T07:06:32;92272.75;;;5.90;81.23
75219;BME280;63801;49.414;19.474;2024-02-23T07:08:32;92281.25;;;5.95;81.23
75219;BME280;63801;49.414;19.474;2024-02-23T07:10:33;92278.94;;;5.94;81.16
75219;BME280;63801;49.414;19.474;2024-02-23T07:12:33;92284.28;;;5.94;81.26
75219;BME280;63801;49.414;19.474;2024-02-23T07:14:33;92285.06;;;5.94;81.16
75219;BME280;63801;49.414;19.474;2024-02-23T07:16:37;92282.75;;;5.93;81.04
75219;BME280;63801;49.414;19.474;2024-02-23T07:18:40;92275.00;;;5.88;81.24
75219;BME280;63801;49.414;19.474;2024-02-23T07:20:41;92282.31;;;5.91;81.35
75219;BME280;63801;49.414;19.474;2024-02-23T07:22:45;92285.00;;;5.91;81.24
75219;BME280;63801;49.414;19.474;2024-02-23T07:24:48;92286.53;;;5.92;81.33
75219;BME280;63801;49.414;19.474;2024-02-23T07:26:49;92284.59;;;5.89;81.44
75219;BME280;63801;49.414;19.474;2024-02-23T07:28:49;92297.53;;;5.86;81.46
75219;BME280;63801;49.414;19.474;2024-02-23T07:30:50;92294.84;;;5.86;81.35
75219;BME280;63801;49.414;19.474;2024-02-23T07:32:51;92306.25;;;5.83;81.64
75219;BME280;63801;49.414;19.474;2024-02-23T07:34:51;92308.47;;;5.81;81.45
75219;BME280;63801;49.414;19.474;2024-02-23T07:36:52;92297.38;;;5.79;81.52
75219;BME280;63801;49.414;19.474;2024-02-23T07:38:52;92313.06;;;5.81;81.43
75219;BME280;63801;49.414;19.474;2024-02-23T07:40:53;92302.28;;;5.77;81.68
75219;BME280;63801;49.414;19.474;2024-02-23T07:42:53;92299.97;;;5.76;81.75
75219;BME280;63801;49.414;19.474;2024-02-23T07:44:53;92304.53;;;5.75;81.83
75219;BME280;63801;49.414;19.474;2024-02-23T07:46:54;92312.16;;;5.73;81.83
75219;BME280;63801;49.414;19.474;2024-02-23T07:48:55;92313.28;;;5.72;81.67
75219;BME280;63801;49.414;19.474;2024-02-23T07:50:55;92317.06;;;5.71;81.67
75219;BME280;63801;49.414;19.474;2024-02-23T07:52:56;92318.91;;;5.67;82.39
75219;BME280;63801;49.414;19.474;2024-02-23T07:54:56;92315.81;;;5.65;82.24
75219;BME280;63801;49.414;19.474;2024-02-23T07:56:57;92313.81;;;5.62;82.22
75219;BME280;63801;49.414;19.474;2024-02-23T07:58:57;92316.88;;;5.61;82.27
75219;BME280;63801;49.414;19.474;2024-02-23T08:00:58;92321.44;;;5.60;82.41
75219;BME280;63801;49.414;19.474;2024-02-23T08:02:58;92312.66;;;5.60;82.45
75219;BME280;63801;49.414;19.474;2024-02-23T08:04:59;92321.78;;;5.59;82.72
75219;BME280;63801;49.414;19.474;2024-02-23T08:07:00;92318.69;;;5.57;82.62
75219;BME280;63801;49.414;19.474;2024-02-23T08:09:01;92305.69;;;5.55;82.84
75219;BME280;63801;49.414;19.474;2024-02-23T08:11:02;92320.09;;;5.51;83.13
75219;BME280;63801;49.414;19.474;2024-02-23T08:13:03;92313.97;;;5.50;83.14
75219;BME280;63801;49.414;19.474;2024-02-23T08:15:04;92321.66;;;5.52;83.10
75219;BME280;63801;49.414;19.474;2024-02-23T08:17:04;92325.09;;;5.52;83.02
75219;BME280;63801;49.414;19.474;2024-02-23T08:19:05;92312.50;;;5.53;83.23
75219;BME280;63801;49.414;19.474;2024-02-23T08:21:05;92313.28;;;5.53;83.07
75219;BME280;63801;49.414;19.474;2024-02-23T08:23:06;92307.94;;;5.53;83.22
75219;BME280;63801;49.414;19.474;2024-02-23T08:25:06;92318.63;;;5.53;83.13
75219;BME280;63801;49.414;19.474;2024-02-23T08:27:07;92319.03;;;5.55;83.27
75219;BME280;63801;49.414;19.474;2024-02-23T08:29:08;92314.47;;;5.56;83.37
75219;BME280;63801;49.414;19.474;2024-02-23T08:31:09;92317.16;;;5.56;83.17
75219;BME280;63801;49.414;19.474;2024-02-23T08:33:09;92312.59;;;5.56;83.15
75219;BME280;63801;49.414;19.474;2024-02-23T08:35:11;92332.13;;;5.60;83.12
75219;BME280;63801;49.414;19.474;2024-02-23T08:37:12;92323.00;;;5.61;83.17
75219;BME280;63801;49.414;19.474;2024-02-23T08:39:12;92334.09;;;5.63;83.06
75219;BME280;63801;49.414;19.474;2024-02-23T08:41:13;92339.81;;;5.62;83.14
75219;BME280;63801;49.414;19.474;2024-02-23T08:43:13;92342.13;;;5.63;83.06
75219;BME280;63801;49.414;19.474;2024-02-23T08:45:14;92341.00;;;5.64;82.93
75219;BME280;63801;49.414;19.474;2024-02-23T08:47:14;92352.13;;;5.66;83.00
75219;BME280;63801;49.414;19.474;2024-02-23T08:49:14;92350.19;;;5.67;83.20
75219;BME280;63801;49.414;19.474;2024-02-23T08:51:15;92341.00;;;5.64;83.30
75219;BME280;63801;49.414;19.474;2024-02-23T08:53:15;92341.00;;;5.64;83.31
75219;BME280;63801;49.414;19.474;2024-02-23T08:55:15;92340.72;;;5.69;83.03
75219;BME280;63801;49.414;19.474;2024-02-23T08:57:16;92343.38;;;5.69;83.25
75219;BME280;63801;49.414;19.474;2024-02-23T08:59:19;92343.38;;;5.69;83.33
75219;BME280;63801;49.414;19.474;2024-02-23T09:01:19;92348.03;;;5.72;83.47
75219;BME280;63801;49.414;19.474;2024-02-23T09:03:20;92345.34;;;5.72;83.25
75219;BME280;63801;49.414;19.474;2024-02-23T09:05:20;92339.72;;;5.77;83.13
75219;BME280;63801;49.414;19.474;2024-02-23T09:07:20;92341.28;;;5.78;83.39
75219;BME280;63801;49.414;19.474;2024-02-23T09:09:21;92352.03;;;5.82;83.24
75219;BME280;63801;49.414;19.474;2024-02-23T09:11:22;92352.09;;;5.85;83.30
75219;BME280;63801;49.414;19.474;2024-02-23T09:13:22;92339.97;;;5.88;83.21
75219;BME280;63801;49.414;19.474;2024-02-23T09:15:23;92348.34;;;5.86;83.34
75219;BME280;63801;49.414;19.474;2024-02-23T09:17:23;92363.72;;;5.93;83.41
75219;BME280;63801;49.414;19.474;2024-02-23T09:19:23;92371.41;;;5.95;83.51
75219;BME280;63801;49.414;19.474;2024-02-23T09:21:24;92363.09;;;6.00;83.54
75219;BME280;63801;49.414;19.474;2024-02-23T09:23:24;92378.44;;;6.03;83.42
75219;BME280;63801;49.414;19.474;2024-02-23T09:25:25;92373.59;;;6.08;83.31
75219;BME280;63801;49.414;19.474;2024-02-23T09:27:25;92377.88;;;6.13;83.24
75219;BME280;63801;49.414;19.474;2024-02-23T09:29:27;92375.63;;;6.15;83.35
75219;BME280;63801;49.414;19.474;2024-02-23T09:31:27;92380.28;;;6.18;83.31
75219;BME280;63801;49.414;19.474;2024-02-23T09:33:28;92385.75;;;6.25;83.33
75219;BME280;63801;49.414;19.474;2024-02-23T09:35:28;92393.47;;;6.30;83.28
75219;BME280;63801;49.414;19.474;2024-02-23T09:37:29;92381.09;;;6.22;83.15
75219;BME280;63801;49.414;19.474;2024-02-23T09:39:29;92388.47;;;6.28;83.01
75219;BME280;63801;49.414;19.474;2024-02-23T09:41:30;92379.69;;;6.28;83.01
75219;BME280;63801;49.414;19.474;2024-02-23T09:43:31;92373.97;;;6.29;83.18
75219;BME280;63801;49.414;19.474;2024-02-23T09:45:33;92392.38;;;6.31;83.08
75219;BME280;63801;49.414;19.474;2024-02-23T09:47:34;92369.69;;;6.25;83.31
75219;BME280;63801;49.414;19.474;2024-02-23T09:49:39;92386.13;;;6.46;83.21
75219;BME280;63801;49.414;19.474;2024-02-23T09:51:43;92390.06;;;6.52;83.30
75219;BME280;63801;49.414;19.474;2024-02-23T09:53:44;92387.09;;;6.57;83.23
75219;BME280;63801;49.414;19.474;2024-02-23T09:55:44;92393.56;;;6.56;83.44
75219;BME280;63801;49.414;19.474;2024-02-23T09:57:47;92399.13;;;6.67;83.26
75219;BME280;63801;49.414;19.474;2024-02-23T09:59:48;92398.06;;;6.71;83.10
75219;BME280;63801;49.414;19.474;2024-02-23T10:01:49;92401.56;;;6.75;83.18
75219;BME280;63801;49.414;19.474;2024-02-23T10:03:55;92396.69;;;6.81;83.20
75219;BME280;63801;49.414;19.474;2024-02-23T10:05:57;92399.78;;;6.83;83.09
75219;BME280;63801;49.414;19.474;2024-02-23T10:07:58;92390.66;;;6.88;83.16
75219;BME280;63801;49.414;19.474;2024-02-23T10:09:58;92392.63;;;6.91;83.11
75219;BME280;63801;49.414;19.474;2024-02-23T10:11:59;92384.28;;;6.96;83.02
75219;BME280;63801;49.414;19.474;2024-02-23T10:13:59;92392.03;;;7.01;83.31
75219;BME280;63801;49.414;19.474;2024-02-23T10:16:00;92391.28;;;7.04;82.75
75219;BME280;63801;49.414;19.474;2024-02-23T10:18:00;92377.44;;;6.98;82.88
75219;BME280;63801;49.414;19.474;2024-02-23T10:20:00;92390.31;;;7.12;82.73
75219;BME280;63801;49.414;19.474;2024-02-23T10:22:04;92394.97;;;7.18;82.87
75219;BME280;63801;49.414;19.474;2024-02-23T10:24:05;92393.59;;;7.28;82.79
75219;BME280;63801;49.414;19.474;2024-02-23T10:26:06;92390.63;;;7.33;82.42
75219;BME280;63801;49.414;19.474;2024-02-23T10:28:07;92394.91;;;7.38;82.52
75219;BME280;63801;49.414;19.474;2024-02-23T10:30:08;92393.81;;;7.42;82.32
75219;BME280;63801;49.414;19.474;2024-02-23T10:32:14;92397.31;;;7.46;81.78
75219;BME280;63801;49.414;19.474;2024-02-23T10:34:18;92406.53;;;7.49;81.65
75219;BME280;63801;49.414;19.474;2024-02-23T10:36:19;92402.75;;;7.53;82.03
75219;BME280;63801;49.414;19.474;2024-02-23T10:38:20;92405.13;;;7.58;81.74
75219;BME280;63801;49.414;19.474;2024-02-23T10:40:21;92400.25;;;7.64;81.93